Time;durP1;ratioP1;P1;durP2;ratioP2;P2;SDS_P1;SDS_P2;PMS_P1;PMS_P2;Temp;Humidity;BMP_temperature;BMP_pressure;BME280_temperature;BME280_humidity;BME280_pressure;Samples;Min_cycle;Max_cycle;Signal;HPM_P1;HPM_P2
2023/05/14 00:00:27;;;;;;;20.73;15.65;;;;;;;11.83;100.00;101105.53;4919051;29;20066;-79
2023/05/14 00:02:55;;;;;;;21.42;16.45;;;;;;;11.84;100.00;101113.25;4920833;29;20159;-80
2023/05/14 00:05:22;;;;;;;18.75;16.60;;;;;;;11.84;100.00;101113.25;4922452;29;20087;-79
2023/05/14 00:07:49;;;;;;;18.00;16.02;;;;;;;11.85;100.00;101103.59;4921951;29;20530;-80
2023/05/14 00:10:17;;;;;;;21.67;17.02;;;;;;;11.79;100.00;101099.81;4924498;29;20056;-79
2023/05/14 00:12:44;;;;;;;20.50;16.00;;;;;;;11.73;100.00;101110.06;4923932;29;20052;-80
2023/05/14 00:15:11;;;;;;;21.88;16.80;;;;;;;11.72;100.00;101108.41;4924797;29;20076;-80
2023/05/14 00:17:38;;;;;;;20.48;17.98;;;;;;;11.70;100.00;101112.97;4925230;29;20151;-82
2023/05/14 00:20:07;;;;;;;20.10;17.20;;;;;;;11.68;100.00;101120.16;4927017;29;20083;-81
2023/05/14 00:22:33;;;;;;;19.60;17.50;;;;;;;11.63;100.00;101121.44;4930109;29;20059;-82
2023/05/14 00:25:00;;;;;;;22.33;18.15;;;;;;;11.57;100.00;101119.41;4928609;29;20117;-80
2023/05/14 00:27:27;;;;;;;21.77;19.48;;;;;;;11.55;100.00;101121.38;4929563;29;20461;-80
2023/05/14 00:29:53;;;;;;;23.00;18.35;;;;;;;11.51;100.00;101116.56;4928448;29;20079;-81
2023/05/14 00:32:20;;;;;;;21.05;18.25;;;;;;;11.56;100.00;101111.69;4925571;29;20056;-80
2023/05/14 00:34:47;;;;;;;24.67;19.92;;;;;;;11.46;100.00;101114.38;4922231;29;20135;-81
2023/05/14 00:37:15;;;;;;;25.45;19.30;;;;;;;11.33;100.00;101102.66;4914930;28;20128;-82
2023/05/14 00:39:45;;;;;;;22.90;18.67;;;;;;;11.20;100.00;101098.59;4922620;29;20131;-80
2023/05/14 00:42:11;;;;;;;23.60;18.73;;;;;;;11.23;100.00;101108.78;4922194;29;20084;-80
2023/05/14 00:44:38;;;;;;;20.50;18.20;;;;;;;11.11;100.00;101102.09;4923225;29;20052;-82
2023/05/14 00:47:05;;;;;;;21.17;18.73;;;;;;;10.96;100.00;101086.06;4921918;29;20139;-82
2023/05/14 00:49:32;;;;;;;21.30;18.98;;;;;;;10.93;100.00;101088.16;4921674;29;20144;-82
2023/05/14 00:51:59;;;;;;;23.10;19.13;;;;;;;10.82;100.00;101089.22;4923017;29;20120;-82
2023/05/14 00:54:30;;;;;;;22.95;18.90;;;;;;;10.87;100.00;101102.66;4921734;29;20062;-79
2023/05/14 00:56:57;;;;;;;21.15;19.00;;;;;;;10.89;100.00;101089.41;4921930;29;20071;-79
2023/05/14 00:59:23;;;;;;;22.20;19.80;;;;;;;10.90;100.00;101099.75;4920998;29;20090;-80
2023/05/14 01:01:50;;;;;;;22.92;19.65;;;;;;;10.87;100.00;101094.00;4921432;29;20060;-82
2023/05/14 01:04:17;;;;;;;22.98;20.38;;;;;;;10.86;100.00;101090.56;4922734;29;20106;-81
2023/05/14 01:06:55;;;;;;;23.13;20.70;;;;;;;10.91;100.00;101090.91;4923108;29;20063;-82
2023/05/14 01:09:32;;;;;;;24.67;18.60;;;;;;;10.96;100.00;101096.53;4921796;29;20449;-81
2023/05/14 01:12:05;;;;;;;22.50;19.88;;;;;;;10.95;100.00;101100.13;4921157;29;20148;-82
2023/05/14 01:14:40;;;;;;;25.17;21.13;;;;;;;10.91;100.00;101080.44;4923147;29;20048;-81
2023/05/14 01:17:10;;;;;;;26.30;21.02;;;;;;;10.92;100.00;101089.13;4921965;29;20063;-81
2023/05/14 01:19:41;;;;;;;27.83;19.77;;;;;;;10.90;100.00;101083.22;4922300;29;20147;-81
2023/05/14 01:22:09;;;;;;;22.85;19.38;;;;;;;10.84;100.00;101083.81;4922411;29;20368;-81
2023/05/14 01:24:36;;;;;;;22.88;20.40;;;;;;;10.83;100.00;101077.75;4923464;29;20078;-81
2023/05/14 01:27:10;;;;;;;26.27;21.45;;;;;;;10.82;100.00;101077.91;4923741;29;20126;-81
2023/05/14 01:29:40;;;;;;;23.85;21.27;;;;;;;10.72;100.00;101083.19;4923018;29;20086;-81
2023/05/14 01:32:09;;;;;;;25.00;20.05;;;;;;;10.66;100.00;101075.91;4921291;29;20088;-81
2023/05/14 01:34:37;;;;;;;23.70;20.70;;;;;;;10.57;100.00;101080.22;4920899;29;20461;-81
2023/05/14 01:37:05;;;;;;;26.40;20.23;;;;;;;10.52;100.00;101071.16;4920441;29;20091;-81
2023/05/14 01:39:36;;;;;;;24.73;20.88;;;;;;;10.53;100.00;101072.81;4920435;29;20059;-82
2023/05/14 01:42:05;;;;;;;23.70;21.05;;;;;;;10.54;100.00;101070.03;4956995;23;20055;-77
2023/05/14 01:44:32;;;;;;;24.05;21.05;;;;;;;10.51;100.00;101066.91;4944354;28;20051;-76
2023/05/14 01:46:59;;;;;;;28.55;23.13;;;;;;;10.34;100.00;101068.50;4950682;29;20142;-79
2023/05/14 01:49:25;;;;;;;28.13;24.60;;;;;;;10.44;100.00;101077.09;4944076;29;20055;-77
2023/05/14 01:51:52;;;;;;;27.98;25.05;;;;;;;10.38;100.00;101071.66;4941539;29;20058;-77
2023/05/14 01:54:19;;;;;;;27.70;24.77;;;;;;;10.36;100.00;101068.34;4944009;28;20225;-77
2023/05/14 01:56:47;;;;;;;29.75;25.30;;;;;;;10.32;100.00;101059.97;4950357;29;20100;-77
2023/05/14 01:59:13;;;;;;;27.77;24.33;;;;;;;10.39;100.00;101065.47;4950084;28;20147;-77
2023/05/14 02:01:40;;;;;;;30.05;26.15;;;;;;;10.36;100.00;101058.72;4950773;29;20142;-77
2023/05/14 02:04:06;;;;;;;29.55;25.65;;;;;;;10.25;100.00;101057.09;4951793;29;20051;-77
2023/05/14 02:06:33;;;;;;;32.28;27.17;;;;;;;10.28;100.00;101048.97;4952001;29;20094;-77
2023/05/14 02:09:00;;;;;;;30.00;26.42;;;;;;;10.29;100.00;101048.00;4945228;28;20146;-77
2023/05/14 02:11:26;;;;;;;30.05;26.65;;;;;;;10.32;100.00;101048.69;4953186;29;20048;-77
2023/05/14 02:13:54;;;;;;;31.75;26.48;;;;;;;10.25;100.00;101053.66;4952734;28;20097;-77
2023/05/14 02:16:21;;;;;;;32.42;27.63;;;;;;;10.23;100.00;101048.56;4950507;28;20126;-76
2023/05/14 02:18:47;;;;;;;30.73;27.42;;;;;;;10.21;100.00;101049.69;4950406;28;20342;-76
2023/05/14 02:21:14;;;;;;;34.40;28.63;;;;;;;10.15;100.00;101043.19;4950118;29;20486;-76
2023/05/14 02:23:41;;;;;;;31.13;26.67;;;;;;;10.03;100.00;101049.56;4952659;29;20071;-77
2023/05/14 02:26:09;;;;;;;30.45;25.88;;;;;;;10.09;100.00;101048.19;4950272;28;20081;-76
2023/05/14 02:28:36;;;;;;;32.50;25.85;;;;;;;10.01;100.00;101043.66;4945710;29;20448;-76
2023/05/14 02:31:04;;;;;;;30.33;25.92;;;;;;;9.92;100.00;101044.53;4951313;29;20421;-78
2023/05/14 02:33:30;;;;;;;30.80;26.23;;;;;;;9.87;100.00;101044.94;4953467;29;20146;-77
2023/05/14 02:35:57;;;;;;;30.42;24.17;;;;;;;9.80;100.00;101041.25;4952642;29;20142;-77
2023/05/14 02:38:24;;;;;;;26.27;23.15;;;;;;;9.78;100.00;101034.50;4949890;29;20164;-77
2023/05/14 02:40:50;;;;;;;27.90;23.23;;;;;;;9.69;100.00;101043.19;4950702;29;20112;-77
2023/05/14 02:43:17;;;;;;;27.08;22.73;;;;;;;9.70;100.00;101047.44;4941222;28;20146;-77
2023/05/14 02:45:43;;;;;;;26.13;23.38;;;;;;;9.71;100.00;101046.50;4944183;28;20426;-77
2023/05/14 02:48:11;;;;;;;27.77;23.77;;;;;;;9.72;100.00;101048.97;4949038;29;20069;-76
2023/05/14 02:50:38;;;;;;;25.60;22.88;;;;;;;9.69;100.00;101035.34;4949569;28;20047;-77
2023/05/14 02:53:05;;;;;;;29.10;22.98;;;;;;;9.65;100.00;101056.53;4944993;28;20051;-77
2023/05/14 02:55:31;;;;;;;32.25;24.80;;;;;;;9.57;100.00;101045.94;4943981;29;20054;-76
2023/05/14 02:57:58;;;;;;;26.90;24.00;;;;;;;9.52;100.00;101045.53;4949637;29;20051;-76
2023/05/14 03:00:24;;;;;;;31.95;24.58;;;;;;;9.43;100.00;101056.84;4948809;28;20050;-77
2023/05/14 03:02:51;;;;;;;30.52;24.08;;;;;;;9.42;100.00;101060.41;4946347;29;20087;-77
2023/05/14 03:05:19;;;;;;;29.02;25.30;;;;;;;9.39;100.00;101052.03;4951674;29;20465;-75
2023/05/14 03:07:46;;;;;;;29.42;23.92;;;;;;;9.45;100.00;101046.25;4943247;28;20412;-77
2023/05/14 03:10:12;;;;;;;27.92;23.88;;;;;;;9.42;100.00;101049.97;4952400;29;20047;-75
2023/05/14 03:12:39;;;;;;;28.40;24.38;;;;;;;9.47;100.00;101058.19;4955756;28;20051;-77
2023/05/14 03:15:07;;;;;;;26.98;24.08;;;;;;;9.41;100.00;101057.94;4954842;29;20131;-76
2023/05/14 03:17:34;;;;;;;39.13;25.33;;;;;;;9.38;100.00;101059.03;4949593;29;20494;-78
2023/05/14 03:20:00;;;;;;;28.77;24.85;;;;;;;9.29;100.00;101067.69;4948373;29;20534;-76
2023/05/14 03:22:29;;;;;;;28.45;25.38;;;;;;;9.21;100.00;101064.94;4954307;28;20047;-76
2023/05/14 03:24:55;;;;;;;30.80;25.20;;;;;;;9.18;100.00;101065.22;4954597;29;20053;-77
2023/05/14 03:27:22;;;;;;;31.33;24.95;;;;;;;9.19;100.00;101065.06;4951275;29;20459;-77
2023/05/14 03:29:48;;;;;;;29.83;24.08;;;;;;;9.20;100.00;101065.91;4951829;28;20051;-77
2023/05/14 03:32:15;;;;;;;31.13;25.83;;;;;;;9.18;100.00;101067.81;4948385;29;20473;-77
2023/05/14 03:34:43;;;;;;;29.33;25.40;;;;;;;9.21;100.00;101062.31;4956638;29;20126;-77
2023/05/14 03:37:10;;;;;;;29.15;24.08;;;;;;;9.21;100.00;101067.53;4953508;29;20510;-77
2023/05/14 03:39:38;;;;;;;27.10;23.50;;;;;;;9.21;100.00;101057.09;4953056;29;20154;-76
2023/05/14 03:42:05;;;;;;;28.48;23.70;;;;;;;9.19;100.00;101054.63;4950707;29;20144;-77
2023/05/14 03:44:31;;;;;;;26.85;23.30;;;;;;;9.16;100.00;101057.50;4953619;29;20055;-77
2023/05/14 03:46:58;;;;;;;28.85;24.35;;;;;;;9.15;100.00;101057.66;4945620;29;20043;-77
2023/05/14 03:49:25;;;;;;;29.40;24.17;;;;;;;9.13;100.00;101051.72;4953440;29;20051;-77
2023/05/14 03:51:52;;;;;;;26.88;22.90;;;;;;;9.15;100.00;101050.63;4945520;28;20142;-77
2023/05/14 03:54:18;;;;;;;25.52;22.38;;;;;;;9.12;100.00;101050.91;4949467;28;20057;-77
2023/05/14 03:56:46;;;;;;;25.92;22.63;;;;;;;9.11;100.00;101043.22;4949894;29;20133;-77
2023/05/14 03:59:13;;;;;;;25.48;22.60;;;;;;;9.14;100.00;101046.38;4950430;28;20047;-76
2023/05/14 04:01:39;;;;;;;27.67;21.42;;;;;;;9.18;100.00;101047.75;4942798;28;20055;-77
2023/05/14 04:07:28;;;;;;;26.40;22.10;;;;;;;9.39;100.00;101041.59;4952762;29;20053;-76
2023/05/14 04:09:54;;;;;;;23.63;20.85;;;;;;;9.61;100.00;101044.72;4950138;29;20051;-77
2023/05/14 04:12:22;;;;;;;24.85;22.25;;;;;;;9.83;100.00;101047.97;4953062;28;20055;-78
2023/05/14 04:14:49;;;;;;;25.25;20.77;;;;;;;9.94;100.00;101050.41;4953357;28;20157;-77
2023/05/14 04:17:15;;;;;;;24.27;20.67;;;;;;;9.98;100.00;101039.53;4945680;29;20073;-77
2023/05/14 04:19:42;;;;;;;22.77;20.20;;;;;;;10.13;100.00;101049.53;4952716;29;20126;-77
2023/05/14 04:22:08;;;;;;;22.17;19.10;;;;;;;10.17;100.00;101040.44;4952863;29;20134;-77
2023/05/14 04:24:35;;;;;;;21.05;18.83;;;;;;;10.24;100.00;101042.38;4952748;28;20424;-77
2023/05/14 04:27:02;;;;;;;21.65;17.70;;;;;;;10.28;100.00;101043.75;4953902;28;20079;-76
2023/05/14 04:29:30;;;;;;;21.08;18.88;;;;;;;10.48;100.00;101051.47;4952999;28;20075;-77
2023/05/14 04:31:57;;;;;;;20.77;18.27;;;;;;;10.67;100.00;101047.94;4947435;28;20485;-77
2023/05/14 04:34:23;;;;;;;20.92;18.30;;;;;;;10.81;100.00;101058.75;4953212;29;20055;-77
2023/05/14 04:36:50;;;;;;;20.63;17.92;;;;;;;11.07;100.00;101050.16;4950119;29;20048;-77
2023/05/14 04:39:18;;;;;;;19.60;17.50;;;;;;;11.29;100.00;101050.56;4952767;29;20055;-77
2023/05/14 04:41:44;;;;;;;20.20;17.23;;;;;;;11.41;100.00;101038.03;4952896;29;20097;-77
2023/05/14 04:44:12;;;;;;;21.25;17.67;;;;;;;11.33;100.00;101038.00;4952470;28;20506;-77
2023/05/14 04:46:40;;;;;;;19.75;17.75;;;;;;;11.45;99.80;101036.75;4947153;28;20134;-77
2023/05/14 04:49:07;;;;;;;19.48;17.48;;;;;;;11.64;98.95;101044.44;4954360;28;20490;-77
2023/05/14 04:51:34;;;;;;;20.10;17.15;;;;;;;11.73;97.97;101031.41;4948594;29;20077;-77
2023/05/14 04:54:01;;;;;;;18.27;16.38;;;;;;;11.75;97.40;101029.44;4952107;29;20051;-76
2023/05/14 04:56:27;;;;;;;20.67;16.83;;;;;;;11.92;97.19;101021.53;4953716;29;20507;-77
2023/05/14 04:58:54;;;;;;;18.13;16.33;;;;;;;12.14;96.77;101028.06;4947150;28;20135;-77
2023/05/14 05:01:21;;;;;;;24.63;17.77;;;;;;;11.52;96.94;101023.88;4946528;28;20197;-77
2023/05/14 05:03:49;;;;;;;18.65;16.65;;;;;;;11.57;97.50;101032.91;4953144;29;20058;-78
2023/05/14 05:06:16;;;;;;;19.08;17.13;;;;;;;11.89;96.94;101031.50;4947971;28;20146;-76
2023/05/14 05:08:42;;;;;;;18.67;16.13;;;;;;;11.95;96.88;101049.25;4953762;29;20050;-76
2023/05/14 05:11:09;;;;;;;18.38;16.33;;;;;;;12.27;96.21;101030.25;4952863;29;20040;-76
2023/05/14 05:13:36;;;;;;;18.27;16.08;;;;;;;12.71;94.63;101030.91;4948463;28;20051;-77
2023/05/14 05:16:02;;;;;;;17.73;15.65;;;;;;;13.17;92.86;101031.34;4946370;28;20050;-77
2023/05/14 05:18:29;;;;;;;17.75;15.77;;;;;;;13.46;90.54;101022.97;4948074;29;20477;-79
2023/05/14 05:20:57;;;;;;;17.33;14.13;;;;;;;13.95;88.39;101019.28;4955074;29;20130;-78
2023/05/14 05:23:24;;;;;;;18.30;13.77;;;;;;;15.34;84.86;101016.72;4944488;28;20143;-77
2023/05/14 05:25:50;;;;;;;17.20;13.70;;;;;;;16.12;81.73;101004.91;4954686;29;20051;-77
2023/05/14 05:28:17;;;;;;;15.02;13.20;;;;;;;16.65;78.25;101000.31;4954717;29;20058;-77
2023/05/14 05:30:44;;;;;;;15.50;13.70;;;;;;;16.97;76.61;100994.56;4954613;29;20335;-77
2023/05/14 05:33:11;;;;;;;18.13;14.85;;;;;;;17.42;74.56;100980.09;4952807;29;20047;-77
2023/05/14 05:35:38;;;;;;;16.15;14.43;;;;;;;17.16;73.54;100993.09;4953692;29;20078;-77
2023/05/14 05:38:06;;;;;;;16.67;14.18;;;;;;;17.20;73.97;100999.63;4956009;29;20078;-77
2023/05/14 05:40:33;;;;;;;17.38;13.93;;;;;;;17.13;74.36;101010.16;4953990;28;20047;-77
2023/05/14 05:43:00;;;;;;;16.33;14.30;;;;;;;17.29;75.09;101019.66;4956646;29;20051;-77
2023/05/14 05:45:26;;;;;;;17.60;14.10;;;;;;;17.44;74.29;101001.88;4954041;28;20519;-77
2023/05/14 05:47:53;;;;;;;16.98;14.45;;;;;;;18.10;73.40;101007.63;4948198;28;20130;-77
2023/05/14 05:50:19;;;;;;;19.58;14.77;;;;;;;17.94;72.73;101002.66;4956111;28;20071;-79
2023/05/14 05:52:46;;;;;;;19.55;15.65;;;;;;;16.86;74.53;101017.03;4954830;29;20477;-77
2023/05/14 05:55:14;;;;;;;19.60;16.05;;;;;;;16.19;76.83;101021.66;4956929;28;20057;-77
2023/05/14 05:57:41;;;;;;;21.20;17.95;;;;;;;15.02;79.74;101038.06;4955625;28;20115;-78
2023/05/14 06:00:13;;;;;;;20.88;17.80;;;;;;;14.85;81.90;101040.81;4954474;28;20110;-78
2023/05/14 06:02:39;;;;;;;22.25;18.48;;;;;;;14.82;82.69;101041.16;4948293;29;20054;-77
2023/05/14 06:05:07;;;;;;;22.80;18.15;;;;;;;15.13;82.94;101045.53;4959154;29;20047;-78
2023/05/14 06:07:34;;;;;;;19.98;17.80;;;;;;;14.96;83.81;101044.03;4951469;29;20056;-78
2023/05/14 06:10:21;;;;;;;20.50;18.35;;;;;;;15.47;83.03;101038.06;4955777;29;20047;-77
2023/05/14 06:12:49;;;;;;;19.83;17.70;;;;;;;16.80;79.71;101030.97;4946702;29;20060;-79
2023/05/14 06:15:15;;;;;;;22.30;17.77;;;;;;;17.23;77.23;101015.13;4951280;28;20097;-79
2023/05/14 06:17:46;;;;;;;20.95;18.80;;;;;;;18.18;74.42;101004.00;4940341;28;20059;-78
2023/05/14 06:20:13;;;;;;;20.67;17.45;;;;;;;19.33;71.51;101009.19;4939719;28;20043;-79
2023/05/14 06:22:40;;;;;;;20.80;18.52;;;;;;;19.76;70.07;101003.47;4939128;29;20135;-79
2023/05/14 06:25:07;;;;;;;24.83;19.65;;;;;;;19.76;69.02;100990.19;4945816;29;20134;-80
2023/05/14 06:27:34;;;;;;;20.83;18.63;;;;;;;19.05;70.33;101005.91;4939104;28;20098;-78
2023/05/14 06:30:02;;;;;;;24.45;21.42;;;;;;;20.14;67.33;100985.78;4939259;28;20579;-79
2023/05/14 06:32:29;;;;;;;22.92;20.27;;;;;;;20.56;67.16;100994.22;4939543;28;20131;-79
2023/05/14 06:34:56;;;;;;;25.10;19.73;;;;;;;21.24;65.71;100990.94;4939191;28;20538;-79
2023/05/14 06:37:23;;;;;;;21.40;18.42;;;;;;;21.06;65.04;100992.47;4948264;28;20130;-78
2023/05/14 06:39:50;;;;;;;20.92;18.58;;;;;;;21.75;64.75;100998.63;4939329;28;20071;-79
2023/05/14 06:42:17;;;;;;;21.02;18.92;;;;;;;20.47;65.77;100987.50;4936719;29;20135;-78
2023/05/14 06:44:44;;;;;;;23.90;21.40;;;;;;;20.68;66.87;101008.47;4937337;29;20083;-78
2023/05/14 06:47:12;;;;;;;24.25;21.63;;;;;;;20.88;66.33;101009.16;4937113;29;20146;-78
2023/05/14 06:49:39;;;;;;;23.90;21.42;;;;;;;21.93;64.60;100995.16;4937687;28;20051;-77
2023/05/14 06:52:06;;;;;;;25.75;22.90;;;;;;;21.69;63.86;100992.34;4944293;29;20078;-78
2023/05/14 06:54:33;;;;;;;25.67;22.95;;;;;;;22.05;63.06;100988.09;4938376;28;20055;-78
2023/05/14 06:56:59;;;;;;;25.80;22.98;;;;;;;22.14;62.69;100970.78;4936154;28;20135;-78
2023/05/14 06:59:26;;;;;;;26.58;23.92;;;;;;;22.11;62.91;100988.03;4936098;28;20567;-77
2023/05/14 07:01:53;;;;;;;27.08;23.02;;;;;;;22.63;62.16;100984.91;4935979;28;20123;-78
2023/05/14 07:04:21;;;;;;;24.27;21.15;;;;;;;22.50;61.95;100985.88;4941692;28;20119;-78
2023/05/14 07:06:47;;;;;;;22.95;20.45;;;;;;;21.89;64.40;101001.97;4949488;28;20083;-78
2023/05/14 07:09:16;;;;;;;24.30;21.67;;;;;;;22.27;62.72;100986.59;4937389;28;20075;-80
2023/05/14 07:11:42;;;;;;;26.35;21.45;;;;;;;22.71;61.91;100982.69;4936985;29;20105;-78
2023/05/14 07:14:09;;;;;;;23.05;20.63;;;;;;;23.11;61.39;100982.16;4941927;29;20541;-78
2023/05/14 07:16:36;;;;;;;24.25;21.27;;;;;;;21.68;61.29;100976.59;4934335;28;20052;-78
2023/05/14 07:19:03;;;;;;;23.33;20.63;;;;;;;22.26;61.98;100990.28;4943972;28;20070;-78
2023/05/14 07:21:31;;;;;;;27.25;21.95;;;;;;;21.69;65.96;101002.19;4941776;28;20138;-79
2023/05/14 07:23:57;;;;;;;25.15;22.23;;;;;;;22.04;64.21;100994.47;4952660;28;20175;-78
2023/05/14 07:26:38;;;;;;;27.75;23.92;;;;;;;21.59;63.56;100989.38;4939366;28;20079;-80
2023/05/14 07:29:08;;;;;;;26.00;23.27;;;;;;;20.90;65.22;100995.63;4935593;29;20051;-79
2023/05/14 07:31:40;;;;;;;25.30;22.42;;;;;;;20.70;64.83;100985.13;4932900;28;20060;-78
2023/05/14 07:34:09;;;;;;;24.75;22.10;;;;;;;21.12;66.02;100996.09;4943917;28;20052;-77
2023/05/14 07:36:52;;;;;;;24.25;21.02;;;;;;;20.49;64.55;100985.44;4950226;29;20052;-79
2023/05/14 07:39:23;;;;;;;23.73;21.23;;;;;;;22.42;63.28;100983.53;4945873;28;20112;-79
2023/05/14 07:41:58;;;;;;;21.05;18.80;;;;;;;22.93;61.79;100982.22;4945604;28;20513;-78
2023/05/14 07:44:36;;;;;;;23.65;21.10;;;;;;;23.17;60.71;100968.66;4937479;29;20043;-79
2023/05/14 07:47:07;;;;;;;20.90;18.75;;;;;;;23.76;58.56;100974.84;4949094;28;20134;-78
2023/05/14 07:49:34;;;;;;;19.88;16.27;;;;;;;21.40;60.83;100980.53;4936631;28;20063;-78
2023/05/14 07:52:02;;;;;;;16.75;15.05;;;;;;;22.26;59.97;100968.97;4931785;29;20135;-77
2023/05/14 07:54:29;;;;;;;16.58;14.88;;;;;;;23.34;57.83;100984.81;4936681;29;20051;-77
2023/05/14 07:56:56;;;;;;;16.55;14.95;;;;;;;24.19;56.74;100970.09;4942031;28;20412;-77
2023/05/14 07:59:32;;;;;;;16.20;14.57;;;;;;;24.03;54.71;100974.34;4945768;28;20102;-77
2023/05/14 08:17:24;;;;;;;13.45;11.65;;;;;;;24.53;53.37;100974.53;4916580;28;20179;-78
2023/05/14 08:19:50;;;;;;;12.38;10.27;;;;;;;23.95;53.38;100970.16;4925505;28;20067;-79
2023/05/14 08:22:17;;;;;;;14.15;10.68;;;;;;;24.32;52.54;100967.19;4910928;29;20071;-78
2023/05/14 08:24:44;;;;;;;11.65;10.32;;;;;;;24.36;53.88;100973.69;4919844;29;20054;-79
2023/05/14 08:27:10;;;;;;;12.15;9.70;;;;;;;24.30;51.92;100963.94;4920089;29;20116;-79
2023/05/14 08:29:46;;;;;;;12.18;10.02;;;;;;;23.96;52.27;100966.44;4917273;29;20139;-78
2023/05/14 08:32:12;;;;;;;10.77;9.25;;;;;;;24.17;53.04;100965.78;4916602;29;20054;-78
2023/05/14 08:34:41;;;;;;;11.77;8.50;;;;;;;24.55;51.78;100967.09;4917071;29;20090;-77
2023/05/14 08:37:14;;;;;;;9.80;8.80;;;;;;;24.16;52.44;100958.00;4922116;29;20090;-76
2023/05/14 08:39:41;;;;;;;10.55;9.13;;;;;;;24.38;52.79;100955.53;4911102;29;20539;-77
2023/05/14 08:42:11;;;;;;;11.48;10.20;;;;;;;24.91;53.35;100971.19;4914696;28;20067;-75
2023/05/14 08:44:43;;;;;;;10.93;9.60;;;;;;;25.08;53.00;100960.50;4914341;29;20062;-76
2023/05/14 08:47:18;;;;;;;10.60;8.88;;;;;;;25.58;50.71;100955.06;4916744;29;20127;-78
2023/05/14 08:49:52;;;;;;;12.50;11.18;;;;;;;25.60;52.81;100957.50;4919540;29;20048;-78
2023/05/14 08:52:22;;;;;;;12.93;10.50;;;;;;;25.73;52.80;100944.59;4911284;28;20048;-79
2023/05/14 08:54:51;;;;;;;12.23;9.85;;;;;;;24.63;51.91;100939.09;4913972;29;20154;-77
2023/05/14 08:57:19;;;;;;;12.07;9.73;;;;;;;24.60;52.35;100942.25;4912833;29;20135;-78
2023/05/14 08:59:47;;;;;;;13.93;10.93;;;;;;;24.03;54.55;100950.28;4918253;29;20079;-78
2023/05/14 09:02:16;;;;;;;12.55;9.60;;;;;;;24.33;54.32;100950.06;4912153;29;20401;-78
2023/05/14 09:04:47;;;;;;;12.18;10.13;;;;;;;24.62;53.26;100946.31;4911076;29;20452;-78
2023/05/14 09:07:15;;;;;;;13.68;10.95;;;;;;;24.67;54.65;100946.41;4918914;29;20050;-78
2023/05/14 09:09:44;;;;;;;14.25;10.65;;;;;;;24.31;54.78;100933.47;4917621;29;20094;-78
2023/05/14 09:12:12;;;;;;;14.13;11.13;;;;;;;23.68;54.03;100936.97;4916190;29;20087;-80
2023/05/14 09:14:39;;;;;;;13.43;11.65;;;;;;;23.67;55.04;100941.50;4920223;29;20115;-80
2023/05/14 09:17:05;;;;;;;14.80;12.00;;;;;;;23.05;56.89;100933.16;4919709;29;20048;-79
2023/05/14 09:19:39;;;;;;;15.15;11.77;;;;;;;23.42;58.45;100941.75;4912252;29;20140;-80
2023/05/14 09:22:11;;;;;;;17.70;12.60;;;;;;;23.87;57.72;100941.13;4913168;29;20048;-78
2023/05/14 09:24:38;;;;;;;12.57;11.20;;;;;;;24.10;57.52;100935.69;4918514;29;20139;-78
2023/05/14 09:27:06;;;;;;;12.27;11.07;;;;;;;23.63;56.25;100934.22;4917696;29;20059;-78
2023/05/14 09:29:33;;;;;;;12.80;10.63;;;;;;;23.70;56.15;100919.66;4913628;29;20488;-79
2023/05/14 09:32:04;;;;;;;10.57;9.45;;;;;;;23.91;55.26;100917.44;4910174;29;20135;-76
2023/05/14 09:34:32;;;;;;;11.32;9.70;;;;;;;23.09;55.71;100920.19;4916284;29;20056;-76
2023/05/14 09:37:00;;;;;;;9.90;8.73;;;;;;;23.87;53.47;100913.59;4918383;29;20056;-78
2023/05/14 09:39:28;;;;;;;10.32;8.32;;;;;;;24.21;53.10;100911.84;4917665;29;20127;-79
2023/05/14 09:41:56;;;;;;;8.65;7.85;;;;;;;24.41;51.76;100907.72;4915543;28;20127;-79
2023/05/14 09:44:23;;;;;;;13.23;9.55;;;;;;;23.61;51.53;100902.41;4916620;29;20060;-77
2023/05/14 09:46:51;;;;;;;9.50;8.60;;;;;;;23.48;52.09;100902.63;4917022;28;20048;-79
2023/05/14 09:49:18;;;;;;;11.95;9.20;;;;;;;23.35;52.38;100910.88;4913548;28;20044;-77
2023/05/14 09:51:46;;;;;;;13.65;10.10;;;;;;;22.83;51.82;100894.72;4912387;28;20135;-78
2023/05/14 09:54:12;;;;;;;11.95;9.48;;;;;;;22.58;54.59;100908.22;4915103;28;20568;-78
2023/05/14 09:56:41;;;;;;;13.60;10.98;;;;;;;23.02;56.55;100909.59;4916250;28;20127;-79
2023/05/14 09:59:07;;;;;;;13.32;12.02;;;;;;;22.97;57.30;100917.50;4915493;28;20131;-78
2023/05/14 10:01:35;;;;;;;13.55;12.07;;;;;;;22.72;56.91;100901.63;4912959;28;20056;-78
2023/05/14 10:04:04;;;;;;;13.20;12.00;;;;;;;22.65;58.36;100910.81;4920416;28;20469;-78
2023/05/14 10:06:36;;;;;;;15.00;13.07;;;;;;;22.37;57.39;100896.22;4920873;28;20040;-78
2023/05/14 10:09:05;;;;;;;15.05;13.45;;;;;;;22.57;58.99;100898.59;4918692;29;20060;-81
2023/05/14 10:11:37;;;;;;;17.70;13.80;;;;;;;22.83;59.49;100898.22;4915339;28;20075;-78
2023/05/14 10:14:16;;;;;;;17.75;14.02;;;;;;;22.30;59.83;100900.81;4916667;29;20080;-78
2023/05/14 10:16:48;;;;;;;14.07;12.52;;;;;;;22.78;58.25;100889.22;4913683;29;20048;-78
2023/05/14 10:19:17;;;;;;;14.43;12.93;;;;;;;23.08;55.49;100873.97;4915128;29;20054;-80
2023/05/14 10:21:47;;;;;;;14.55;13.05;;;;;;;23.37;54.50;100866.88;4916436;28;20098;-79
2023/05/14 10:24:14;;;;;;;15.63;13.02;;;;;;;23.38;53.23;100865.81;4918061;28;20048;-80
2023/05/14 10:26:42;;;;;;;15.13;12.77;;;;;;;23.36;54.31;100881.25;4920264;29;20052;-80
2023/05/14 10:29:11;;;;;;;14.32;12.10;;;;;;;23.29;55.11;100877.91;4912853;29;20063;-78
2023/05/14 10:31:52;;;;;;;16.05;12.20;;;;;;;23.12;55.50;100869.00;4915877;29;20075;-79
2023/05/14 10:34:41;;;;;;;12.82;11.07;;;;;;;23.43;55.77;100871.28;4920010;29;20064;-80
2023/05/14 10:37:15;;;;;;;14.68;13.05;;;;;;;23.39;56.49;100872.78;4922611;28;20305;-80
2023/05/14 10:39:44;;;;;;;15.88;13.18;;;;;;;24.10;55.63;100863.53;4917657;29;20059;-79
2023/05/14 10:42:12;;;;;;;15.25;13.38;;;;;;;23.55;55.83;100851.78;4915347;29;20052;-78
2023/05/14 10:44:50;;;;;;;18.52;13.23;;;;;;;23.14;56.75;100859.72;4918182;29;20142;-78
2023/05/14 10:47:18;;;;;;;13.85;12.43;;;;;;;24.05;55.95;100857.28;4914884;29;20106;-78
2023/05/14 10:49:56;;;;;;;14.05;12.60;;;;;;;23.87;55.68;100847.59;4917339;28;20056;-81
2023/05/14 10:52:24;;;;;;;15.38;11.88;;;;;;;23.50;55.63;100841.78;4913203;29;20098;-80
2023/05/14 10:54:55;;;;;;;13.80;12.32;;;;;;;24.06;57.23;100850.91;4916474;28;20477;-78
2023/05/14 10:57:27;;;;;;;15.30;12.30;;;;;;;23.73;57.33;100838.22;4909374;29;20063;-78
2023/05/14 10:59:58;;;;;;;13.57;12.20;;;;;;;23.68;56.73;100832.78;4914919;28;20312;-78
2023/05/14 11:02:26;;;;;;;15.45;12.82;;;;;;;23.16;57.26;100835.41;4914838;29;20048;-78
2023/05/14 11:04:58;;;;;;;16.25;12.25;;;;;;;23.03;55.28;100827.69;4916506;29;20526;-78
2023/05/14 11:07:28;;;;;;;13.75;10.73;;;;;;;23.03;53.83;100820.50;4917941;28;20522;-78
2023/05/14 11:10:01;;;;;;;14.20;10.40;;;;;;;22.78;53.48;100818.03;4908740;29;20080;-77
2023/05/14 11:12:29;;;;;;;21.27;11.93;;;;;;;23.01;52.53;100819.09;4912362;29;20060;-77
2023/05/14 11:15:00;;;;;;;12.13;10.68;;;;;;;23.39;54.88;100827.38;4918612;29;20060;-77
2023/05/14 11:17:28;;;;;;;13.25;10.35;;;;;;;23.99;56.35;100816.28;4915047;29;20056;-77
2023/05/14 11:19:56;;;;;;;15.80;12.82;;;;;;;23.60;57.35;100825.97;4911221;29;20080;-79
2023/05/14 11:22:23;;;;;;;13.90;12.45;;;;;;;23.85;56.89;100822.16;4914776;29;20052;-79
2023/05/14 11:24:51;;;;;;;17.38;11.73;;;;;;;23.91;56.87;100816.69;4909851;29;20227;-77
2023/05/14 11:27:18;;;;;;;17.40;12.27;;;;;;;24.09;55.12;100803.13;4910320;29;20098;-79
2023/05/14 11:29:46;;;;;;;14.15;12.60;;;;;;;24.15;55.85;100812.81;4912288;29;20052;-77